Terminal Aerodrome Forecast
Issued by NWS

Home | Current Version | Previous Version | Graphics & Text | Print | Product List | Glossary On
Versions: 1 2 3 4 5 6 7 8 9 10 11 12 13 14 15
000
FTUS43 KBIS 220521
TAFDIK
TAF
KDIK 220521Z 2206/2306 30010KT P6SM FEW070 SCT150
     FM221200 30008KT P6SM VCSH SCT035 BKN080
     FM221400 34009KT P6SM SCT025 BKN060
     FM222200 35016KT P6SM VCSH SCT060 BKN080
     FM230100 34007KT P6SM FEW060 SCT090=

USA.gov is the U.S. government's official web portal to all federal, state and local government web resources and services.